Time;durP1;ratioP1;P1;durP2;ratioP2;P2;SDS_P1;SDS_P2;PMS_P1;PMS_P2;Temp;Humidity;BMP_temperature;BMP_pressure;BME280_temperature;BME280_humidity;BME280_pressure;Samples;Min_cycle;Max_cycle;Signal;HPM_P1;HPM_P2
2023/10/09 00:02:14;;;;;;;14.38;7.03;;;;;;;;;;6248906;22;20015;-88
2023/10/09 00:04:42;;;;;;;12.82;6.35;;;;;;;;;;6248893;22;20428;-89
2023/10/09 00:07:09;;;;;;;11.90;6.45;;;;;;;;;;6248937;22;20019;-89
2023/10/09 00:09:48;;;;;;;13.27;6.75;;;;;;;;;;6248633;22;20020;-89
2023/10/09 00:12:16;;;;;;;12.25;6.88;;;;;;;;;;6275342;22;20019;-89
2023/10/09 00:14:47;;;;;;;13.68;6.97;;;;;;;;;;6276501;22;20065;-89
2023/10/09 00:19:43;;;;;;;15.95;7.60;;;;;;;;;;6277721;22;20016;-89
2023/10/09 00:22:37;;;;;;;15.98;7.47;;;;;;;;;;6251406;22;20020;-89
2023/10/09 00:25:11;;;;;;;15.60;7.28;;;;;;;;;;6275264;22;20020;-89
2023/10/09 00:27:51;;;;;;;15.80;7.50;;;;;;;;;;6251110;22;20020;-89
2023/10/09 00:30:18;;;;;;;14.30;6.95;;;;;;;;;;6250890;22;20086;-88
2023/10/09 00:33:03;;;;;;;17.40;8.30;;;;;;;;;;6249904;22;20074;-89
2023/10/09 00:35:46;;;;;;;16.10;7.85;;;;;;;;;;6250612;22;20016;-89
2023/10/09 00:40:56;;;;;;;16.90;8.13;;;;;;;;;;6275397;22;20023;-89
2023/10/09 00:43:28;;;;;;;19.88;9.32;;;;;;;;;;6251056;22;20016;-89
2023/10/09 00:45:55;;;;;;;20.63;9.43;;;;;;;;;;6250454;22;20090;-88
2023/10/09 00:48:36;;;;;;;19.95;9.27;;;;;;;;;;6250724;22;20016;-89
2023/10/09 00:51:15;;;;;;;19.60;9.40;;;;;;;;;;6250599;22;20030;-90
2023/10/09 00:53:42;;;;;;;19.90;9.82;;;;;;;;;;6276457;22;20092;-89
2023/10/09 00:58:56;;;;;;;25.58;11.75;;;;;;;;;;6275982;22;20079;-89
2023/10/09 01:01:28;;;;;;;23.50;11.25;;;;;;;;;;6250245;22;20016;-89
2023/10/09 01:03:54;;;;;;;23.55;11.90;;;;;;;;;;6250623;22;20035;-89
2023/10/09 01:06:21;;;;;;;24.52;11.77;;;;;;;;;;6249974;22;20020;-89
2023/10/09 01:09:06;;;;;;;25.77;12.15;;;;;;;;;;6250386;22;20011;-89
2023/10/09 01:11:34;;;;;;;28.75;12.60;;;;;;;;;;6276436;22;20012;-89
2023/10/09 01:14:11;;;;;;;23.00;12.10;;;;;;;;;;6276276;22;20019;-88
2023/10/09 01:16:41;;;;;;;27.50;12.75;;;;;;;;;;6274932;22;20026;-88
2023/10/09 01:19:12;;;;;;;27.30;12.88;;;;;;;;;;6250353;22;20019;-89
2023/10/09 01:21:39;;;;;;;26.02;13.68;;;;;;;;;;6275936;22;20012;-88
2023/10/09 01:24:09;;;;;;;28.35;12.75;;;;;;;;;;6250651;22;20038;-89
2023/10/09 01:26:46;;;;;;;26.55;13.65;;;;;;;;;;6250359;22;20011;-89
2023/10/09 01:29:18;;;;;;;25.77;12.75;;;;;;;;;;6277597;22;20054;-88
2023/10/09 01:31:54;;;;;;;25.95;14.25;;;;;;;;;;6275560;22;20068;-88
2023/10/09 01:34:41;;;;;;;30.40;14.25;;;;;;;;;;6250224;22;20448;-89
2023/10/09 01:37:25;;;;;;;28.80;15.20;;;;;;;;;;6250910;22;20023;-89
2023/10/09 01:40:01;;;;;;;37.83;17.10;;;;;;;;;;6250216;22;20027;-89
2023/10/09 01:44:58;;;;;;;33.85;17.95;;;;;;;;;;6275450;22;20456;-89
2023/10/09 01:47:31;;;;;;;34.50;16.73;;;;;;;;;;6250185;22;20022;-89
2023/10/09 01:49:57;;;;;;;32.58;18.13;;;;;;;;;;6250646;22;20008;-89
2023/10/09 01:52:24;;;;;;;33.35;17.38;;;;;;;;;;6275748;22;20027;-89
2023/10/09 01:54:53;;;;;;;39.75;20.05;;;;;;;;;;6252230;22;20444;-89
2023/10/09 01:57:23;;;;;;;34.22;17.90;;;;;;;;;;6250793;22;20097;-89
2023/10/09 01:59:53;;;;;;;37.08;19.40;;;;;;;;;;6274887;22;20028;-89
2023/10/09 02:02:26;;;;;;;41.55;19.63;;;;;;;;;;6249761;22;20065;-89
2023/10/09 02:05:09;;;;;;;37.65;20.60;;;;;;;;;;6250039;22;20019;-88
2023/10/09 02:07:51;;;;;;;37.97;21.50;;;;;;;;;;6275519;22;20069;-89
2023/10/09 02:13:12;;;;;;;43.95;22.35;;;;;;;;;;6275847;22;20023;-89
2023/10/09 02:21:00;;;;;;;47.95;24.55;;;;;;;;;;6275326;22;20069;-89
2023/10/09 02:23:38;;;;;;;48.00;25.08;;;;;;;;;;6249623;22;20016;-89
2023/10/09 02:26:08;;;;;;;47.38;25.00;;;;;;;;;;6249647;22;20321;-89
2023/10/09 02:28:35;;;;;;;53.17;25.52;;;;;;;;;;6249763;22;20012;-90
2023/10/09 02:31:21;;;;;;;55.75;26.50;;;;;;;;;;6249383;22;20493;-89
2023/10/09 02:33:48;;;;;;;46.58;25.77;;;;;;;;;;6249766;22;20016;-89
2023/10/09 02:36:17;;;;;;;50.97;24.52;;;;;;;;;;6249501;22;20023;-89
2023/10/09 02:38:43;;;;;;;54.63;25.88;;;;;;;;;;6249449;22;20015;-88
2023/10/09 02:43:44;;;;;;;51.35;25.65;;;;;;;;;;6275170;22;20094;-89
2023/10/09 02:46:18;;;;;;;49.80;25.35;;;;;;;;;;6248900;22;20119;-90
2023/10/09 02:48:50;;;;;;;47.55;25.55;;;;;;;;;;6274623;22;20015;-89
2023/10/09 02:53:52;;;;;;;47.75;25.23;;;;;;;;;;6274955;22;20023;-89
2023/10/09 02:56:24;;;;;;;46.53;25.15;;;;;;;;;;6248844;22;20014;-88
2023/10/09 02:59:05;;;;;;;49.58;24.35;;;;;;;;;;6224217;22;20022;-89
2023/10/09 03:01:31;;;;;;;42.35;23.15;;;;;;;;;;6223703;22;20016;-89
2023/10/09 03:04:02;;;;;;;46.65;24.15;;;;;;;;;;6223481;22;20173;-89
2023/10/09 03:06:32;;;;;;;49.47;24.55;;;;;;;;;;6224253;22;20051;-89
2023/10/09 03:08:58;;;;;;;43.80;21.88;;;;;;;;;;6223704;22;20038;-89
2023/10/09 03:11:26;;;;;;;42.70;23.40;;;;;;;;;;6249362;22;20028;-89
2023/10/09 03:13:53;;;;;;;44.72;22.23;;;;;;;;;;6276143;22;20090;-89
2023/10/09 03:16:19;;;;;;;39.13;22.23;;;;;;;;;;6248708;22;20452;-89
2023/10/09 03:18:50;;;;;;;37.47;21.83;;;;;;;;;;6223540;22;20042;-89
2023/10/09 03:21:16;;;;;;;44.97;22.42;;;;;;;;;;6223795;22;20015;-89
2023/10/09 03:23:49;;;;;;;39.42;22.23;;;;;;;;;;6223993;22;20015;-89
2023/10/09 03:26:17;;;;;;;37.03;20.55;;;;;;;;;;6223605;22;20023;-89
2023/10/09 03:28:45;;;;;;;35.55;21.20;;;;;;;;;;6223849;22;20448;-89
2023/10/09 03:31:11;;;;;;;34.42;19.67;;;;;;;;;;6249163;22;20090;-89
2023/10/09 03:33:38;;;;;;;37.90;18.95;;;;;;;;;;6223397;22;20012;-89
2023/10/09 03:36:09;;;;;;;34.80;17.55;;;;;;;;;;6223975;22;20016;-89
2023/10/09 03:38:36;;;;;;;31.33;17.52;;;;;;;;;;6224060;22;20012;-89
2023/10/09 03:41:06;;;;;;;29.60;15.23;;;;;;;;;;6224155;22;20026;-89
2023/10/09 03:43:39;;;;;;;25.98;14.50;;;;;;;;;;6224068;22;20016;-90
2023/10/09 03:46:13;;;;;;;24.98;13.40;;;;;;;;;;6223864;22;20048;-90
2023/10/09 03:48:43;;;;;;;29.20;12.93;;;;;;;;;;6249535;22;20015;-90
2023/10/09 03:51:13;;;;;;;20.50;11.10;;;;;;;;;;6224559;22;20034;-90
2023/10/09 03:53:39;;;;;;;18.35;9.95;;;;;;;;;;6223790;22;20138;-90
2023/10/09 03:56:15;;;;;;;21.20;10.30;;;;;;;;;;6224027;22;20022;-90
2023/10/09 03:58:42;;;;;;;16.85;9.55;;;;;;;;;;6223899;22;20474;-88
2023/10/09 04:01:20;;;;;;;15.65;9.07;;;;;;;;;;6223650;22;20024;-87
2023/10/09 04:03:47;;;;;;;19.33;9.70;;;;;;;;;;6223917;22;20081;-87
2023/10/09 04:06:17;;;;;;;28.25;9.85;;;;;;;;;;6223931;22;20051;-87
2023/10/09 04:08:51;;;;;;;18.02;8.65;;;;;;;;;;6249831;22;20011;-87
2023/10/09 04:11:22;;;;;;;17.75;9.15;;;;;;;;;;6249105;22;20030;-87
2023/10/09 04:13:53;;;;;;;23.90;9.85;;;;;;;;;;6224305;22;20011;-87
2023/10/09 04:18:57;;;;;;;19.75;9.70;;;;;;;;;;6276291;22;20024;-87
2023/10/09 04:21:37;;;;;;;19.75;8.75;;;;;;;;;;6223823;22;20015;-87
2023/10/09 04:26:37;;;;;;;18.42;8.73;;;;;;;;;;6248989;22;20022;-87
2023/10/09 04:29:03;;;;;;;20.35;9.48;;;;;;;;;;6249147;22;20058;-88
2023/10/09 04:31:31;;;;;;;17.77;9.85;;;;;;;;;;6223805;22;20027;-87
2023/10/09 04:47:36;;;;;;;19.17;9.07;;;;;;;;;;6249498;22;20073;-87
2023/10/09 05:00:22;;;;;;;21.42;9.10;;;;;;;;;;6250572;22;20026;-87
2023/10/09 05:02:57;;;;;;;18.13;9.57;;;;;;;;;;6225675;22;20015;-87
2023/10/09 05:08:19;;;;;;;23.90;9.80;;;;;;;;;;6250671;22;20024;-87
2023/10/09 05:16:07;;;;;;;17.15;9.38;;;;;;;;;;6250349;22;20074;-87
2023/10/09 05:18:37;;;;;;;19.58;9.02;;;;;;;;;;6225043;22;20424;-87
2023/10/09 05:23:48;;;;;;;21.83;9.60;;;;;;;;;;6249430;22;20391;-87
2023/10/09 05:27:17;;;;;;;24.55;9.48;;;;;;;;;;6224734;22;20016;-86
2023/10/09 05:29:19;;;;;;;19.23;8.82;;;;;;;;;;6237655;22;20022;-87
2023/10/09 05:32:27;;;;;;;22.70;9.50;;;;;;;;;;6225778;22;20018;-87
2023/10/09 05:37:33;;;;;;;22.88;10.60;;;;;;;;;;6250457;22;20019;-87
2023/10/09 05:40:31;;;;;;;22.05;10.38;;;;;;;;;;6249769;22;20016;-87
2023/10/09 05:42:59;;;;;;;22.38;9.68;;;;;;;;;;6247406;22;20024;-87
2023/10/09 06:04:17;;;;;;;19.98;9.35;;;;;;;;;;6249817;22;20015;-86
2023/10/09 06:06:56;;;;;;;24.35;9.18;;;;;;;;;;6224799;22;20098;-87
2023/10/09 06:11:55;;;;;;;22.95;9.68;;;;;;;;;;6249693;22;20479;-87
2023/10/09 06:14:26;;;;;;;24.33;9.93;;;;;;;;;;6249962;22;20019;-88
2023/10/09 06:19:27;;;;;;;20.90;9.10;;;;;;;;;;6249913;22;20020;-87
2023/10/09 06:24:54;;;;;;;23.58;9.25;;;;;;;;;;6250512;22;20469;-88
2023/10/09 06:32:50;;;;;;;23.05;9.10;;;;;;;;;;6255972;22;20030;-88
2023/10/09 06:35:18;;;;;;;20.33;9.23;;;;;;;;;;6250167;22;20016;-87
2023/10/09 06:43:53;;;;;;;19.92;9.30;;;;;;;;;;6250957;22;20360;-90
2023/10/09 06:48:59;;;;;;;20.45;9.27;;;;;;;;;;6251076;22;20030;-89
2023/10/09 06:51:47;;;;;;;22.50;9.45;;;;;;;;;;6225129;22;20008;-88
2023/10/09 06:54:15;;;;;;;18.63;9.25;;;;;;;;;;6223891;22;20015;-88
2023/10/09 06:57:13;;;;;;;22.52;9.88;;;;;;;;;;6224502;22;20020;-88
2023/10/09 06:59:45;;;;;;;22.80;9.98;;;;;;;;;;6249974;22;20019;-89
2023/10/09 07:02:26;;;;;;;21.48;9.80;;;;;;;;;;6224086;22;20081;-88
2023/10/09 07:05:17;;;;;;;24.77;9.98;;;;;;;;;;6225205;22;20019;-88
2023/10/09 07:08:28;;;;;;;26.08;9.35;;;;;;;;;;6248401;22;20015;-88
2023/10/09 07:11:02;;;;;;;20.63;8.77;;;;;;;;;;6249665;22;20023;-88
2023/10/09 07:13:37;;;;;;;21.23;9.75;;;;;;;;;;6225244;22;20022;-87
2023/10/09 07:19:09;;;;;;;18.10;9.02;;;;;;;;;;6251742;22;20452;-88
2023/10/09 07:21:38;;;;;;;23.80;8.90;;;;;;;;;;6224943;22;20094;-88
2023/10/09 07:24:17;;;;;;;22.85;9.35;;;;;;;;;;6225427;22;20502;-89
2023/10/09 07:29:48;;;;;;;23.27;9.13;;;;;;;;;;6249604;22;19915;-88
2023/10/09 07:32:44;;;;;;;20.90;9.95;;;;;;;;;;6215254;23;20118;-87
2023/10/09 07:38:55;;;;;;;18.25;8.77;;;;;;;;;;6200255;23;20156;-90
2023/10/09 07:41:55;;;;;;;21.92;8.82;;;;;;;;;;6187792;23;20024;-88
2023/10/09 07:44:46;;;;;;;21.10;9.50;;;;;;;;;;6187432;23;20389;-88
2023/10/09 07:51:05;;;;;;;28.20;9.57;;;;;;;;;;6076664;23;20024;-88
2023/10/09 07:54:14;;;;;;;21.83;9.40;;;;;;;;;;6105681;23;20020;-89
2023/10/09 07:57:08;;;;;;;25.15;8.57;;;;;;;;;;6157405;23;20121;-87
2023/10/09 07:59:54;;;;;;;26.00;9.98;;;;;;;;;;6158135;23;20389;-88
2023/10/09 08:02:31;;;;;;;26.05;9.25;;;;;;;;;;6161555;23;20109;-87
2023/10/09 08:05:04;;;;;;;22.85;8.88;;;;;;;;;;6187709;23;20017;-88
2023/10/09 08:07:37;;;;;;;25.33;10.20;;;;;;;;;;6188573;23;20013;-87
2023/10/09 08:15:26;;;;;;;23.65;9.40;;;;;;;;;;6190780;23;20056;-87
2023/10/09 08:18:09;;;;;;;26.17;10.00;;;;;;;;;;6189263;23;20111;-87
2023/10/09 08:23:33;;;;;;;20.40;9.00;;;;;;;;;;6187514;23;20023;-85
2023/10/09 08:26:14;;;;;;;23.40;9.20;;;;;;;;;;6212253;23;20017;-88
2023/10/09 08:29:04;;;;;;;;;;;;;;;;;;;;;
2023/10/09 08:31:56;;;;;;;21.27;8.85;;;;;;;;;;6248992;22;20023;-88
2023/10/09 08:34:44;;;;;;;;;;;;;;;;;;;;;
2023/10/09 08:40:58;;;;;;;23.17;8.68;;;;;;;;;;6125808;23;20151;-89
2023/10/09 08:43:34;;;;;;;29.88;10.70;;;;;;;;;;6111051;22;20098;-88
2023/10/09 08:46:01;;;;;;;26.80;8.57;;;;;;;;;;6225614;22;20016;-88
2023/10/09 08:48:28;;;;;;;26.98;9.02;;;;;;;;;;6226555;22;20015;-88
2023/10/09 08:50:56;;;;;;;27.38;9.20;;;;;;;;;;6225492;22;20020;-88
2023/10/09 08:53:31;;;;;;;27.55;9.45;;;;;;;;;;6225897;22;20061;-88
2023/10/09 08:56:00;;;;;;;26.60;8.63;;;;;;;;;;6225665;22;20023;-89
2023/10/09 08:58:32;;;;;;;16.63;7.07;;;;;;;;;;6226301;22;20153;-89
2023/10/09 09:01:00;;;;;;;26.02;8.32;;;;;;;;;;6225917;22;20019;-88
2023/10/09 09:03:27;;;;;;;22.17;7.70;;;;;;;;;;6225567;22;20047;-89
2023/10/09 09:06:04;;;;;;;23.92;8.18;;;;;;;;;;6225506;22;20061;-89
2023/10/09 09:08:31;;;;;;;24.00;8.68;;;;;;;;;;6226554;22;20466;-88
2023/10/09 09:11:15;;;;;;;25.52;7.95;;;;;;;;;;6225780;22;20058;-88
2023/10/09 09:13:48;;;;;;;20.83;7.93;;;;;;;;;;6226816;22;20022;-88
2023/10/09 09:16:21;;;;;;;20.17;7.55;;;;;;;;;;6226093;22;20015;-89
2023/10/09 09:19:13;;;;;;;;;;;;;;;;;;;;;
2023/10/09 09:21:44;;;;;;;18.40;6.80;;;;;;;;;;6250956;22;20019;-89
2023/10/09 09:24:26;;;;;;;19.83;7.63;;;;;;;;;;6225750;22;20399;-89
2023/10/09 09:27:04;;;;;;;15.32;7.07;;;;;;;;;;6226391;22;20018;-89
2023/10/09 09:29:38;;;;;;;20.08;7.65;;;;;;;;;;6225705;22;20513;-89
2023/10/09 09:32:20;;;;;;;18.92;8.20;;;;;;;;;;6225815;22;20016;-89
2023/10/09 09:41:53;;;;;;;22.55;8.18;;;;;;;;;;6191473;23;20104;-90
2023/10/09 10:01:40;;;;;;;16.73;6.55;;;;;;;;;;6154125;23;20068;-90
2023/10/09 10:52:18;;;;;;;15.52;5.82;;;;;;;;;;6070567;23;20042;-90
2023/10/09 10:55:17;;;;;;;13.35;5.35;;;;;;;;;;6020643;23;20014;-89
2023/10/09 11:01:25;;;;;;;14.07;4.60;;;;;;;;;;6193748;23;20088;-90
2023/10/09 11:04:13;;;;;;;10.38;4.57;;;;;;;;;;6228037;22;20120;-87
2023/10/09 11:06:54;;;;;;;10.18;4.22;;;;;;;;;;6228865;22;20049;-89
2023/10/09 11:18:52;;;;;;;12.35;4.82;;;;;;;;;;6215855;22;20020;-88
2023/10/09 11:21:45;;;;;;;12.10;4.32;;;;;;;;;;6223764;22;20030;-88
2023/10/09 11:24:37;;;;;;;11.55;4.38;;;;;;;;;;6257215;22;20030;-88
2023/10/09 11:27:20;;;;;;;12.15;4.57;;;;;;;;;;6227908;22;20385;-88
2023/10/09 11:32:34;;;;;;;8.70;4.35;;;;;;;;;;6249890;22;20023;-88
2023/10/09 11:35:35;;;;;;;14.73;4.80;;;;;;;;;;6226333;22;20046;-88
2023/10/09 11:38:21;;;;;;;11.10;4.63;;;;;;;;;;6228566;22;20094;-87
2023/10/09 11:49:26;;;;;;;9.65;4.72;;;;;;;;;;6249543;22;20344;-88
2023/10/09 11:52:35;;;;;;;9.10;4.20;;;;;;;;;;6224387;22;20016;-89
2023/10/09 11:55:31;;;;;;;8.90;4.40;;;;;;;;;;6248942;22;20348;-89
2023/10/09 11:57:59;;;;;;;11.18;4.57;;;;;;;;;;6223149;22;20026;-88
2023/10/09 12:00:38;;;;;;;8.93;3.85;;;;;;;;;;6222714;22;20016;-88
2023/10/09 12:03:09;;;;;;;9.35;4.50;;;;;;;;;;6224680;22;20452;-89
2023/10/09 12:05:43;;;;;;;9.70;4.30;;;;;;;;;;6224003;22;20019;-88
2023/10/09 12:08:16;;;;;;;9.20;4.65;;;;;;;;;;6224245;22;20016;-87
2023/10/09 12:11:04;;;;;;;10.80;4.65;;;;;;;;;;6224535;22;20016;-88
2023/10/09 12:13:58;;;;;;;10.60;4.05;;;;;;;;;;6223709;22;20031;-89
2023/10/09 12:16:38;;;;;;;;;;;;;;;;;;;;;
2023/10/09 12:19:32;;;;;;;;;;;;;;;;;;;;;
2023/10/09 12:22:21;;;;;;;10.85;4.70;;;;;;;;;;6215613;22;20050;-88
2023/10/09 12:24:50;;;;;;;10.50;4.80;;;;;;;;;;6224248;22;20023;-88
2023/10/09 12:27:20;;;;;;;10.02;4.20;;;;;;;;;;6224963;22;20016;-88
2023/10/09 12:29:51;;;;;;;9.80;4.43;;;;;;;;;;6224401;22;20047;-88
2023/10/09 12:32:20;;;;;;;11.55;4.82;;;;;;;;;;6224393;22;20015;-88
2023/10/09 12:58:26;;;;;;;7.85;4.13;;;;;;;;;;6281040;22;20014;-88
2023/10/09 13:00:52;;;;;;;9.25;4.38;;;;;;;;;;6248919;22;20016;-86
2023/10/09 13:03:40;;;;;;;9.70;4.45;;;;;;;;;;6224349;22;20075;-88
2023/10/09 13:06:12;;;;;;;11.55;4.97;;;;;;;;;;6222908;22;20116;-85
2023/10/09 13:08:51;;;;;;;9.27;4.50;;;;;;;;;;6220426;22;20038;-87
2023/10/09 13:11:37;;;;;;;7.57;4.60;;;;;;;;;;6225208;22;20448;-88
2023/10/09 13:17:47;;;;;;;8.43;3.42;;;;;;;;;;6276596;22;20085;-86
2023/10/09 13:20:23;;;;;;;7.47;3.42;;;;;;;;;;6224792;22;20031;-86
2023/10/09 13:22:54;;;;;;;10.27;3.78;;;;;;;;;;6225344;22;20011;-85
2023/10/09 13:26:03;;;;;;;;;;;;;;;;;;;;;
2023/10/09 13:28:51;;;;;;;7.43;3.53;;;;;;;;;;6116020;23;20021;-89
2023/10/09 13:31:46;;;;;;;6.70;3.30;;;;;;;;;;6106693;23;20025;-89
2023/10/09 13:34:20;;;;;;;8.65;3.63;;;;;;;;;;6106977;23;20053;-89
2023/10/09 13:40:11;;;;;;;6.63;3.85;;;;;;;;;;6224998;22;20010;-90
2023/10/09 13:50:34;;;;;;;;;;;;;;;;;;;;;
2023/10/09 13:53:48;;;;;;;12.80;4.40;;;;;;;;;;6139820;23;20092;-90
2023/10/09 13:56:45;;;;;;;12.07;4.10;;;;;;;;;;6099691;23;20021;-88
2023/10/09 13:59:32;;;;;;;;;;;;;;;;;;;;;
2023/10/09 14:11:58;;;;;;;10.60;4.18;;;;;;;;;;6073586;23;20049;-87
2023/10/09 14:14:49;;;;;;;10.40;4.25;;;;;;;;;;6184553;23;20108;-87
2023/10/09 14:17:55;;;;;;;10.32;4.00;;;;;;;;;;6164074;23;20016;-88
2023/10/09 14:20:31;;;;;;;14.13;4.10;;;;;;;;;;6070920;23;20017;-88
2023/10/09 14:26:39;;;;;;;10.13;3.72;;;;;;;;;;6121294;22;20038;-86
2023/10/09 14:29:08;;;;;;;8.55;4.22;;;;;;;;;;6225237;22;20066;-86
2023/10/09 14:31:40;;;;;;;9.90;3.90;;;;;;;;;;6225576;22;20339;-86
2023/10/09 14:34:09;;;;;;;8.95;3.97;;;;;;;;;;6225730;22;20020;-86
2023/10/09 14:36:46;;;;;;;9.38;3.67;;;;;;;;;;6224685;22;20090;-87
2023/10/09 14:39:26;;;;;;;10.25;4.03;;;;;;;;;;6225513;22;20015;-87
2023/10/09 14:42:17;;;;;;;8.73;3.42;;;;;;;;;;6226219;22;20090;-87
2023/10/09 14:44:46;;;;;;;11.60;3.78;;;;;;;;;;6224537;22;20392;-87
2023/10/09 14:50:21;;;;;;;8.40;3.95;;;;;;;;;;6206009;22;20020;-87
2023/10/09 14:52:50;;;;;;;11.15;3.70;;;;;;;;;;6223998;22;20016;-87
2023/10/09 14:55:31;;;;;;;10.13;3.72;;;;;;;;;;6223992;22;20089;-87
2023/10/09 14:58:08;;;;;;;10.02;3.83;;;;;;;;;;6224220;22;20058;-86
2023/10/09 15:01:07;;;;;;;11.90;4.38;;;;;;;;;;6220595;22;20030;-87
2023/10/09 15:03:57;;;;;;;9.30;3.20;;;;;;;;;;6251472;22;20019;-87
2023/10/09 15:06:49;;;;;;;8.25;3.25;;;;;;;;;;6274654;22;20510;-87
2023/10/09 15:09:31;;;;;;;11.85;3.42;;;;;;;;;;6237875;22;20020;-87
2023/10/09 15:15:44;;;;;;;7.97;3.20;;;;;;;;;;6276375;22;20023;-88
2023/10/09 15:18:37;;;;;;;8.07;2.88;;;;;;;;;;6248611;22;20016;-88
2023/10/09 15:24:51;;;;;;;9.35;3.53;;;;;;;;;;6155650;23;20024;-91
2023/10/09 15:27:24;;;;;;;8.82;3.25;;;;;;;;;;6129732;23;20017;-89
2023/10/09 15:30:34;;;;;;;7.10;3.30;;;;;;;;;;6128878;23;20018;-87
2023/10/09 15:33:16;;;;;;;10.98;3.50;;;;;;;;;;6089269;23;20128;-89
2023/10/09 15:35:59;;;;;;;8.32;2.97;;;;;;;;;;6124568;23;20065;-88
2023/10/09 15:38:29;;;;;;;8.88;3.50;;;;;;;;;;6130285;23;20113;-90
2023/10/09 15:44:19;;;;;;;7.85;3.25;;;;;;;;;;6063751;23;20032;-87
2023/10/09 15:47:00;;;;;;;10.90;3.70;;;;;;;;;;6081576;23;20029;-88
2023/10/09 15:49:30;;;;;;;6.30;2.95;;;;;;;;;;6128688;23;20026;-88
2023/10/09 15:51:58;;;;;;;8.88;3.15;;;;;;;;;;6129216;23;20017;-88
2023/10/09 15:54:24;;;;;;;7.70;3.30;;;;;;;;;;6128385;23;20025;-87
2023/10/09 15:57:30;;;;;;;10.55;3.30;;;;;;;;;;6128974;23;20017;-90
2023/10/09 16:00:01;;;;;;;10.20;3.25;;;;;;;;;;6217509;22;20050;-88
2023/10/09 16:03:00;;;;;;;8.73;3.33;;;;;;;;;;6224409;22;20058;-89
2023/10/09 16:05:47;;;;;;;8.13;3.45;;;;;;;;;;6224766;22;20023;-92
2023/10/09 16:08:13;;;;;;;8.80;3.40;;;;;;;;;;6223906;22;20027;-88
2023/10/09 16:10:50;;;;;;;7.82;3.00;;;;;;;;;;6224430;22;20440;-88
2023/10/09 16:13:27;;;;;;;6.18;2.88;;;;;;;;;;6224563;22;20015;-87
2023/10/09 16:16:07;;;;;;;5.18;2.80;;;;;;;;;;6226370;22;20019;-87
2023/10/09 16:18:34;;;;;;;4.68;2.72;;;;;;;;;;6222882;22;20493;-89
2023/10/09 16:21:26;;;;;;;6.95;3.03;;;;;;;;;;6224666;22;20452;-88
2023/10/09 16:23:59;;;;;;;7.00;2.58;;;;;;;;;;6224014;22;20507;-88
2023/10/09 16:26:35;;;;;;;7.53;2.83;;;;;;;;;;6224184;22;20011;-88
2023/10/09 16:29:01;;;;;;;6.63;2.50;;;;;;;;;;6224703;22;20051;-88
2023/10/09 16:31:35;;;;;;;5.85;2.55;;;;;;;;;;6224493;22;20012;-89
2023/10/09 16:37:28;;;;;;;6.50;2.90;;;;;;;;;;6193210;22;20020;-90
2023/10/09 16:39:54;;;;;;;6.47;2.63;;;;;;;;;;6223896;22;20019;-87
2023/10/09 18:08:42;;;;;;;7.50;2.30;;;;;;;;;;6244388;22;21911;-89
2023/10/09 18:11:09;;;;;;;7.72;2.28;;;;;;;;;;6251532;22;20015;-88
2023/10/09 18:13:53;;;;;;;7.20;2.38;;;;;;;;;;6226209;22;20012;-90
2023/10/09 18:16:41;;;;;;;5.68;2.10;;;;;;;;;;6224909;22;20478;-87
2023/10/09 18:19:50;;;;;;;5.13;2.13;;;;;;;;;;6228371;22;20012;-91
2023/10/09 18:22:26;;;;;;;4.85;2.03;;;;;;;;;;6256568;22;20024;-87
2023/10/09 18:24:58;;;;;;;4.47;2.20;;;;;;;;;;6228495;22;20023;-89
2023/10/09 18:27:38;;;;;;;6.53;2.35;;;;;;;;;;6228630;22;20015;-89
2023/10/09 18:30:05;;;;;;;12.95;2.80;;;;;;;;;;6226157;22;20047;-88
2023/10/09 18:32:33;;;;;;;7.38;2.50;;;;;;;;;;6226854;22;20032;-89
2023/10/09 18:35:20;;;;;;;6.10;2.17;;;;;;;;;;6225634;22;20020;-89
2023/10/09 18:38:10;;;;;;;3.92;2.10;;;;;;;;;;6224925;22;20054;-89
2023/10/09 18:40:59;;;;;;;7.43;2.92;;;;;;;;;;6250879;22;20110;-90
2023/10/09 18:43:52;;;;;;;8.65;3.03;;;;;;;;;;6207534;23;20022;-89
2023/10/09 18:47:00;;;;;;;;;;;;;;;;;;;;;
2023/10/09 18:49:37;;;;;;;5.75;2.90;;;;;;;;;;6204221;23;20099;-89
2023/10/09 18:52:10;;;;;;;9.00;2.88;;;;;;;;;;6220942;23;20099;-89
2023/10/09 18:54:45;;;;;;;7.78;2.40;;;;;;;;;;6212397;23;20016;-89
2023/10/09 18:57:23;;;;;;;5.53;2.70;;;;;;;;;;6219335;23;20016;-89
2023/10/09 19:00:04;;;;;;;6.78;2.72;;;;;;;;;;6220203;23;20020;-89
2023/10/09 19:02:33;;;;;;;5.00;2.38;;;;;;;;;;6221026;23;20070;-88
2023/10/09 19:04:59;;;;;;;7.90;2.85;;;;;;;;;;6220756;23;20016;-88
2023/10/09 19:07:32;;;;;;;8.57;2.83;;;;;;;;;;6220962;23;20018;-88
2023/10/09 19:10:07;;;;;;;5.97;2.85;;;;;;;;;;6211360;23;20020;-89
2023/10/09 19:12:58;;;;;;;5.88;2.58;;;;;;;;;;6245087;23;20437;-89
2023/10/09 19:18:27;;;;;;;6.43;2.70;;;;;;;;;;6244411;23;20020;-88
2023/10/09 19:20:58;;;;;;;7.25;2.47;;;;;;;;;;6219645;23;20361;-90
2023/10/09 19:23:24;;;;;;;6.32;2.70;;;;;;;;;;6218538;23;20012;-88
2023/10/09 19:25:54;;;;;;;4.13;2.60;;;;;;;;;;6219301;23;20463;-89
2023/10/09 19:28:24;;;;;;;6.32;2.53;;;;;;;;;;6219805;23;20020;-89
2023/10/09 19:30:51;;;;;;;8.30;3.00;;;;;;;;;;6219359;23;20456;-89
2023/10/09 19:33:17;;;;;;;5.72;2.67;;;;;;;;;;6219548;23;20026;-89
2023/10/09 19:35:47;;;;;;;7.80;2.88;;;;;;;;;;6218561;23;20336;-89
2023/10/09 19:38:16;;;;;;;11.88;3.15;;;;;;;;;;6218610;23;20058;-89
2023/10/09 19:40:44;;;;;;;10.73;3.05;;;;;;;;;;6219206;23;20058;-89
2023/10/09 19:43:10;;;;;;;6.57;2.60;;;;;;;;;;6218788;23;20020;-88
2023/10/09 19:45:36;;;;;;;7.90;2.95;;;;;;;;;;6219098;23;20020;-88
2023/10/09 19:48:03;;;;;;;4.82;2.47;;;;;;;;;;6219597;23;20016;-89
2023/10/09 19:50:29;;;;;;;6.03;2.97;;;;;;;;;;6219197;23;20012;-89
2023/10/09 19:52:55;;;;;;;7.28;3.42;;;;;;;;;;6219523;23;20019;-88
2023/10/09 19:55:21;;;;;;;9.43;3.00;;;;;;;;;;6219310;23;20020;-88
2023/10/09 19:57:47;;;;;;;6.47;2.42;;;;;;;;;;6219488;23;20099;-88
2023/10/09 20:00:25;;;;;;;6.05;2.63;;;;;;;;;;6219295;23;20016;-88
2023/10/09 20:02:57;;;;;;;5.80;2.35;;;;;;;;;;6220194;23;20046;-88
2023/10/09 20:05:25;;;;;;;7.75;2.65;;;;;;;;;;6218843;23;20016;-88
2023/10/09 20:07:53;;;;;;;8.27;2.40;;;;;;;;;;6220134;23;20012;-88
2023/10/09 20:10:19;;;;;;;6.25;2.63;;;;;;;;;;6219245;23;20027;-88
2023/10/09 20:12:45;;;;;;;8.00;2.78;;;;;;;;;;6219368;23;20099;-88
2023/10/09 20:15:13;;;;;;;4.88;2.42;;;;;;;;;;6219362;23;20352;-89
2023/10/09 20:17:45;;;;;;;6.65;2.60;;;;;;;;;;6220562;23;20017;-87
2023/10/09 20:20:11;;;;;;;6.07;2.83;;;;;;;;;;6218975;23;20066;-88
2023/10/09 20:22:38;;;;;;;6.95;3.10;;;;;;;;;;6220092;23;20054;-89
2023/10/09 20:25:39;;;;;;;7.10;2.80;;;;;;;;;;6220014;23;20064;-92
2023/10/09 20:28:07;;;;;;;9.30;2.70;;;;;;;;;;6165014;23;20388;-90
2023/10/09 20:30:52;;;;;;;8.35;2.92;;;;;;;;;;6219944;23;20388;-87
2023/10/09 20:33:20;;;;;;;12.52;3.35;;;;;;;;;;6220992;23;20012;-89
2023/10/09 20:36:09;;;;;;;9.13;3.65;;;;;;;;;;6246104;23;20337;-88
2023/10/09 20:38:39;;;;;;;6.03;2.88;;;;;;;;;;6220948;23;20016;-88
2023/10/09 20:41:07;;;;;;;12.25;3.47;;;;;;;;;;6220738;23;20027;-88
2023/10/09 20:43:40;;;;;;;6.95;2.80;;;;;;;;;;6220559;23;20016;-88
2023/10/09 20:46:12;;;;;;;9.05;3.13;;;;;;;;;;6221059;23;20318;-88
2023/10/09 20:48:47;;;;;;;6.85;3.00;;;;;;;;;;6221445;23;20023;-88
2023/10/09 20:51:17;;;;;;;7.68;3.90;;;;;;;;;;6220855;23;20020;-89
2023/10/09 20:53:43;;;;;;;7.53;4.20;;;;;;;;;;6220787;23;20012;-88
2023/10/09 20:56:10;;;;;;;6.75;3.50;;;;;;;;;;6220811;23;20078;-88
2023/10/09 20:58:40;;;;;;;5.80;3.38;;;;;;;;;;6221103;23;20110;-88
2023/10/09 21:01:14;;;;;;;8.13;3.50;;;;;;;;;;6220757;23;20016;-88
2023/10/09 21:03:41;;;;;;;5.93;3.03;;;;;;;;;;6221475;23;20358;-88
2023/10/09 21:06:07;;;;;;;7.47;2.78;;;;;;;;;;6220022;23;20020;-88
2023/10/09 21:08:36;;;;;;;8.25;3.00;;;;;;;;;;6219925;23;20457;-88
2023/10/09 21:11:03;;;;;;;6.70;3.35;;;;;;;;;;6220410;23;20404;-88
2023/10/09 21:13:31;;;;;;;8.35;3.50;;;;;;;;;;6220425;23;20091;-88
2023/10/09 21:15:57;;;;;;;5.90;3.00;;;;;;;;;;6220510;23;20499;-88
2023/10/09 21:18:25;;;;;;;11.10;3.58;;;;;;;;;;6220164;23;20016;-88
2023/10/09 21:20:51;;;;;;;6.00;3.22;;;;;;;;;;6220105;23;20020;-88
2023/10/09 21:23:20;;;;;;;7.72;3.58;;;;;;;;;;6220870;23;20012;-88
2023/10/09 21:25:46;;;;;;;8.93;3.67;;;;;;;;;;6220368;23;20061;-88
2023/10/09 21:28:12;;;;;;;9.50;4.10;;;;;;;;;;6221334;23;20027;-89
2023/10/09 21:30:38;;;;;;;8.43;3.80;;;;;;;;;;6220254;23;20035;-88
2023/10/09 21:33:10;;;;;;;5.65;3.40;;;;;;;;;;6220312;23;20077;-88
2023/10/09 21:35:37;;;;;;;7.53;3.88;;;;;;;;;;6220405;23;20028;-89
2023/10/09 21:38:05;;;;;;;6.35;4.00;;;;;;;;;;6220430;23;20027;-88
2023/10/09 21:40:33;;;;;;;7.45;3.50;;;;;;;;;;6219810;23;20020;-89
2023/10/09 21:43:06;;;;;;;9.63;4.40;;;;;;;;;;6220192;23;20035;-88
2023/10/09 21:45:33;;;;;;;9.23;3.85;;;;;;;;;;6220144;23;20367;-89
2023/10/09 21:47:59;;;;;;;12.45;4.65;;;;;;;;;;6221126;23;20055;-88
2023/10/09 21:50:26;;;;;;;12.05;4.68;;;;;;;;;;6220382;23;20035;-88
2023/10/09 21:52:56;;;;;;;8.77;4.85;;;;;;;;;;6220513;23;20020;-88
2023/10/09 21:55:25;;;;;;;10.27;4.53;;;;;;;;;;6220027;23;20055;-88
2023/10/09 21:57:52;;;;;;;8.48;4.55;;;;;;;;;;6220046;23;20399;-89